Time;durP1;ratioP1;P1;durP2;ratioP2;P2;SDS_P1;SDS_P2;PMS_P1;PMS_P2;Temp;Humidity;BMP_temperature;BMP_pressure;BME280_temperature;BME280_humidity;BME280_pressure;Samples;Min_cycle;Max_cycle;Signal;HPM_P1;HPM_P2
2021/12/22 00:01:50;;;;;;;50.50;30.20;;;;;;;;;;5030430;28;20060;-67
2021/12/22 00:04:16;;;;;;;57.07;31.60;;;-2.20;99.90;;;;;;5029919;28;20029;-67
2021/12/22 00:06:42;;;;;;;49.30;28.43;;;;;;;;;;5030453;28;20092;-67
2021/12/22 00:09:09;;;;;;;51.90;28.47;;;;;;;;;;5023914;28;20036;-67
2021/12/22 00:11:35;;;;;;;42.93;27.43;;;-2.10;99.90;;;;;;5009953;28;20030;-68
2021/12/22 00:14:01;;;;;;;48.47;27.70;;;;;;;;;;5010498;28;20060;-68
2021/12/22 00:16:26;;;;;;;49.77;27.07;;;-2.30;99.90;;;;;;5010443;28;20061;-67
2021/12/22 00:18:52;;;;;;;48.13;27.03;;;-2.20;99.90;;;;;;5010625;28;20037;-67
2021/12/22 00:21:17;;;;;;;67.20;34.40;;;-2.50;99.90;;;;;;5009064;28;20531;-67
2021/12/22 00:23:43;;;;;;;56.80;33.23;;;-2.40;99.90;;;;;;5010635;28;20057;-67
2021/12/22 00:26:09;;;;;;;51.03;29.17;;;-2.30;99.90;;;;;;5010062;28;20108;-68
2021/12/22 00:28:34;;;;;;;51.40;30.60;;;;;;;;;;5013653;28;20048;-67
2021/12/22 00:31:08;;;;;;;51.57;30.17;;;;;;;;;;5028445;28;20025;-67
2021/12/22 00:33:34;;;;;;;51.58;28.30;;;;;;;;;;5027696;28;20022;-67
2021/12/22 00:36:00;;;;;;;52.87;31.40;;;;;;;;;;5026656;28;20033;-67
2021/12/22 00:38:26;;;;;;;57.13;30.53;;;;;;;;;;5027892;28;20036;-67
2021/12/22 00:40:51;;;;;;;61.00;32.27;;;-2.20;99.90;;;;;;5027609;28;20108;-67
2021/12/22 00:43:18;;;;;;;59.00;30.57;;;;;;;;;;5027819;28;20104;-67
2021/12/22 00:45:44;;;;;;;50.97;29.17;;;-2.30;99.90;;;;;;5028923;28;20071;-67
2021/12/22 00:48:11;;;;;;;55.70;30.43;;;-2.40;99.90;;;;;;5029776;28;20064;-67
2021/12/22 00:50:38;;;;;;;59.27;29.47;;;-2.50;99.90;;;;;;5011885;28;20065;-67
2021/12/22 00:53:05;;;;;;;42.33;25.73;;;-2.40;99.90;;;;;;5009640;28;20018;-67
2021/12/22 00:55:31;;;;;;;46.17;26.33;;;;;;;;;;5009555;28;20089;-67
2021/12/22 00:57:56;;;;;;;48.60;27.97;;;-2.40;99.90;;;;;;5009852;28;20077;-67
2021/12/22 01:00:24;;;;;;;46.83;25.20;;;-2.60;99.90;;;;;;5009538;28;20079;-67
2021/12/22 01:02:50;;;;;;;49.67;25.37;;;-2.70;99.90;;;;;;5013395;28;20088;-67
2021/12/22 01:05:16;;;;;;;47.83;24.37;;;-2.70;99.90;;;;;;5013828;28;20025;-67
2021/12/22 01:07:44;;;;;;;46.33;26.10;;;-2.70;99.90;;;;;;5013546;28;20034;-67
2021/12/22 01:10:11;;;;;;;47.87;24.63;;;-2.70;99.90;;;;;;5030414;28;20068;-67
2021/12/22 01:12:37;;;;;;;58.77;30.83;;;;;;;;;;5033590;28;20028;-67
2021/12/22 01:15:05;;;;;;;47.63;28.83;;;-2.60;99.90;;;;;;5033618;28;20032;-67
2021/12/22 01:17:37;;;;;;;52.67;28.73;;;-2.70;99.90;;;;;;5033387;28;20021;-67
2021/12/22 01:20:16;;;;;;;51.87;27.70;;;-2.70;99.90;;;;;;5033614;28;20018;-67
2021/12/22 01:25:10;;;;;;;54.57;27.33;;;-2.60;99.90;;;;;;5017527;28;20454;-67
2021/12/22 01:27:40;;;;;;;53.63;27.17;;;-2.60;99.90;;;;;;5013387;28;20033;-68
2021/12/22 01:30:18;;;;;;;57.07;29.70;;;-2.80;99.90;;;;;;5013767;28;20030;-68
2021/12/22 01:32:44;;;;;;;50.27;29.67;;;;;;;;;;5013745;28;20033;-68
2021/12/22 01:35:13;;;;;;;48.70;26.60;;;-2.90;99.90;;;;;;5013512;28;20025;-67
2021/12/22 01:37:39;;;;;;;47.57;25.20;;;;;;;;;;5013121;28;20034;-68
2021/12/22 01:40:06;;;;;;;48.57;27.40;;;-2.90;99.90;;;;;;5013295;28;20053;-68
2021/12/22 01:42:32;;;;;;;64.93;34.17;;;;;;;;;;5013351;28;20061;-67
2021/12/22 01:50:38;;;;;;;51.80;26.83;;;-3.00;99.90;;;;;;5033134;28;20489;-67
2021/12/22 01:53:49;;;;;;;54.13;28.07;;;-3.00;99.90;;;;;;5032525;28;20024;-68
2021/12/22 01:56:25;;;;;;;56.67;28.97;;;-2.90;99.90;;;;;;5032517;28;20168;-68
2021/12/22 01:58:53;;;;;;;60.67;32.83;;;-2.80;99.90;;;;;;5032890;28;20037;-68
2021/12/22 02:01:19;;;;;;;66.57;34.53;;;-2.80;99.90;;;;;;5032695;28;20029;-68
2021/12/22 02:03:47;;;;;;;59.03;32.37;;;-2.80;99.90;;;;;;5029974;28;20104;-68
2021/12/22 02:06:14;;;;;;;54.17;28.03;;;-2.90;99.90;;;;;;5012321;28;20032;-68
2021/12/22 02:08:40;;;;;;;58.73;31.73;;;-2.80;99.90;;;;;;5012972;28;20086;-69
2021/12/22 02:11:07;;;;;;;69.53;36.80;;;-2.90;99.90;;;;;;5012965;28;20387;-68
2021/12/22 02:13:40;;;;;;;57.73;31.47;;;;;;;;;;5012206;28;20034;-67
2021/12/22 02:16:10;;;;;;;55.80;27.00;;;-3.00;99.90;;;;;;5012811;28;20017;-68
2021/12/22 02:18:45;;;;;;;57.13;30.97;;;-3.00;99.90;;;;;;5012735;28;20026;-67
2021/12/22 02:21:11;;;;;;;52.97;27.60;;;-2.90;99.90;;;;;;5012377;28;20021;-68
2021/12/22 02:23:37;;;;;;;48.10;26.13;;;-3.00;99.90;;;;;;5012597;28;20382;-68
2021/12/22 02:26:11;;;;;;;45.23;24.43;;;-3.10;99.90;;;;;;5017019;28;20033;-68
2021/12/22 02:28:40;;;;;;;55.08;27.88;;;;;;;;;;5032338;28;20120;-68
2021/12/22 02:31:06;;;;;;;59.37;28.43;;;-3.20;99.90;;;;;;5031148;28;20056;-68
2021/12/22 02:36:09;;;;;;;42.63;25.17;;;-3.20;99.90;;;;;;5031799;28;20108;-68
2021/12/22 02:38:38;;;;;;;51.13;26.73;;;-3.00;99.90;;;;;;5031957;28;20021;-69
2021/12/22 02:41:07;;;;;;;57.73;31.93;;;-3.10;99.90;;;;;;5027855;28;20030;-68
2021/12/22 02:43:34;;;;;;;57.63;30.43;;;;;;;;;;5013190;28;20040;-69
2021/12/22 02:46:00;;;;;;;55.60;29.00;;;-3.30;99.90;;;;;;5012046;28;20025;-67
2021/12/22 02:48:30;;;;;;;59.67;31.13;;;-3.30;99.90;;;;;;5011768;28;20112;-68
2021/12/22 02:50:59;;;;;;;42.30;26.27;;;-3.10;99.90;;;;;;5011243;28;20061;-68
2021/12/22 02:53:30;;;;;;;50.00;27.87;;;-2.70;99.90;;;;;;5011871;28;20513;-68
2021/12/22 02:56:02;;;;;;;44.27;25.50;;;-3.40;99.90;;;;;;5012027;28;20018;-68
2021/12/22 02:58:39;;;;;;;50.30;28.17;;;-3.20;99.90;;;;;;5011992;28;20037;-68
2021/12/22 03:06:04;;;;;;;45.77;28.00;;;;;;;;;;5031694;28;20059;-68
2021/12/22 03:08:29;;;;;;;53.77;26.23;;;-3.30;99.90;;;;;;5031463;28;20069;-68
2021/12/22 03:10:55;;;;;;;58.73;29.17;;;-3.50;99.90;;;;;;5031613;28;20049;-68
2021/12/22 03:13:25;;;;;;;61.70;28.53;;;-3.50;99.90;;;;;;5031244;28;20530;-68
2021/12/22 03:15:51;;;;;;;46.67;26.60;;;;;;;;;;5029944;28;20032;-67
2021/12/22 03:18:17;;;;;;;42.20;25.63;;;-3.50;99.90;;;;;;5029201;28;20037;-68
2021/12/22 03:20:45;;;;;;;44.33;26.70;;;-3.60;99.90;;;;;;5011479;28;20111;-69
2021/12/22 03:23:11;;;;;;;62.33;33.03;;;-3.30;99.90;;;;;;5011234;28;20121;-68
2021/12/22 03:25:39;;;;;;;57.17;29.60;;;;;;;;;;5010619;28;20026;-68
2021/12/22 03:28:05;;;;;;;46.50;26.27;;;;;;;;;;5011226;28;20034;-67
2021/12/22 03:30:31;;;;;;;53.37;26.67;;;-3.70;99.90;;;;;;5010914;28;20086;-67
2021/12/22 03:32:57;;;;;;;49.00;24.53;;;-3.80;99.90;;;;;;5010861;28;20104;-68
2021/12/22 03:35:23;;;;;;;45.07;23.87;;;-3.50;99.90;;;;;;5010693;28;20097;-68
2021/12/22 03:37:54;;;;;;;55.27;29.40;;;-3.60;99.90;;;;;;5015542;28;20470;-68
2021/12/22 03:40:20;;;;;;;50.63;27.17;;;-3.60;99.90;;;;;;5030522;28;20474;-68
2021/12/22 03:42:47;;;;;;;53.13;26.07;;;;;;;;;;5030980;28;20021;-68
2021/12/22 03:45:13;;;;;;;51.43;24.50;;;;;;;;;;5030404;28;20391;-68
2021/12/22 03:47:38;;;;;;;60.03;27.27;;;-3.70;99.90;;;;;;5028930;28;20061;-68
2021/12/22 03:50:05;;;;;;;55.37;28.40;;;-3.60;99.90;;;;;;5030615;28;20060;-68
2021/12/22 03:52:31;;;;;;;54.73;27.87;;;-3.80;99.90;;;;;;5029397;28;20041;-68
2021/12/22 03:54:58;;;;;;;49.87;24.10;;;-3.90;99.90;;;;;;5011116;28;20046;-68
2021/12/22 03:57:27;;;;;;;57.43;28.53;;;-3.70;99.90;;;;;;5010682;28;20049;-68
2021/12/22 03:59:53;;;;;;;56.50;30.33;;;-3.70;99.90;;;;;;5011472;28;20116;-68
2021/12/22 04:02:21;;;;;;;59.17;29.97;;;-3.80;99.90;;;;;;5010199;28;20457;-68
2021/12/22 04:04:49;;;;;;;59.33;30.27;;;-3.90;99.90;;;;;;5010945;28;20394;-68
2021/12/22 04:07:15;;;;;;;62.97;32.73;;;;;;;;;;5010405;28;20371;-68
2021/12/22 04:09:41;;;;;;;59.40;28.60;;;;;;;;;;5010951;28;20144;-67
2021/12/22 04:12:07;;;;;;;62.40;29.20;;;-3.70;99.90;;;;;;5010502;28;20403;-68
2021/12/22 04:14:33;;;;;;;59.87;26.77;;;-3.90;99.90;;;;;;5026312;28;20076;-67
2021/12/22 04:16:59;;;;;;;56.73;27.57;;;;;;;;;;5017554;28;20054;-67
2021/12/22 04:19:25;;;;;;;50.67;25.33;;;;;;;;;;4997702;28;20061;-68
2021/12/22 04:21:51;;;;;;;57.93;26.33;;;-3.70;99.90;;;;;;5009066;28;20041;-67
2021/12/22 04:24:18;;;;;;;47.97;24.73;;;-3.90;99.90;;;;;;5008161;28;20463;-67
2021/12/22 04:26:44;;;;;;;52.73;27.63;;;;;;;;;;5008622;28;20483;-68
2021/12/22 04:29:11;;;;;;;61.30;28.40;;;-3.80;99.90;;;;;;5008600;28;20072;-68
2021/12/22 04:31:37;;;;;;;53.90;26.97;;;;;;;;;;5008032;28;20018;-68
2021/12/22 04:34:07;;;;;;;57.50;27.47;;;-3.80;99.90;;;;;;5017913;28;20044;-68
2021/12/22 04:36:33;;;;;;;54.87;27.90;;;-4.00;99.90;;;;;;5028314;28;20425;-68
2021/12/22 04:38:59;;;;;;;66.17;31.10;;;;;;;;;;5030067;28;20038;-67
2021/12/22 04:41:25;;;;;;;66.63;29.30;;;;;;;;;;5029648;28;20059;-68
2021/12/22 04:43:51;;;;;;;52.47;25.80;;;-4.00;99.90;;;;;;5030202;28;20101;-67
2021/12/22 04:46:17;;;;;;;52.13;25.13;;;;;;;;;;5022897;28;20109;-67
2021/12/22 04:48:43;;;;;;;48.30;24.17;;;-3.80;99.90;;;;;;5008786;28;20044;-67
2021/12/22 04:51:14;;;;;;;65.47;28.03;;;-3.60;99.90;;;;;;5010736;28;20455;-67
2021/12/22 04:54:02;;;;;;;58.50;27.47;;;-3.90;99.90;;;;;;5012845;28;20060;-67
2021/12/22 04:56:28;;;;;;;54.00;26.27;;;;;;;;;;5029720;28;20033;-67
2021/12/22 04:58:54;;;;;;;59.47;28.00;;;-3.80;99.90;;;;;;5030068;28;20025;-67
2021/12/22 05:01:20;;;;;;;49.47;22.77;;;;;;;;;;5029118;28;20418;-67
2021/12/22 05:03:45;;;;;;;61.20;28.87;;;-4.00;99.90;;;;;;5028615;28;20022;-67
2021/12/22 05:06:11;;;;;;;51.00;25.13;;;;;;;;;;5029842;28;20072;-69
2021/12/22 05:08:37;;;;;;;60.90;26.30;;;-4.00;99.90;;;;;;5027459;28;20249;-67
2021/12/22 05:11:03;;;;;;;76.10;34.07;;;-4.10;99.90;;;;;;5010157;28;20037;-67
2021/12/22 05:13:29;;;;;;;58.33;29.17;;;-3.80;99.90;;;;;;5010083;28;20490;-67
2021/12/22 05:15:55;;;;;;;53.03;25.57;;;;;;;;;;5009648;28;20058;-68
2021/12/22 05:18:24;;;;;;;65.40;28.83;;;-4.10;99.90;;;;;;5009553;28;20065;-67
2021/12/22 05:20:50;;;;;;;62.77;27.60;;;;;;;;;;5009971;28;20104;-67
2021/12/22 05:23:17;;;;;;;65.80;29.80;;;-4.10;99.90;;;;;;5009678;28;20033;-68
2021/12/22 05:25:42;;;;;;;57.43;29.07;;;-3.90;99.90;;;;;;5010010;28;20033;-67
2021/12/22 05:28:08;;;;;;;64.17;29.97;;;-3.90;99.90;;;;;;5009415;28;20487;-67
2021/12/22 05:30:34;;;;;;;53.80;27.00;;;-4.10;99.90;;;;;;5009011;28;20037;-67
2021/12/22 05:32:59;;;;;;;62.30;31.43;;;-4.10;99.90;;;;;;5008523;28;20471;-67
2021/12/22 05:35:25;;;;;;;64.27;28.47;;;;;;;;;;5009669;28;20372;-67
2021/12/22 05:37:51;;;;;;;56.57;26.43;;;-4.30;99.90;;;;;;5009828;28;20060;-67
2021/12/22 05:40:17;;;;;;;47.33;23.77;;;-4.00;99.90;;;;;;5009475;28;20026;-67
2021/12/22 05:42:43;;;;;;;57.77;28.30;;;-4.00;99.90;;;;;;5009423;28;20030;-67
2021/12/22 05:45:09;;;;;;;58.37;27.20;;;-3.90;99.90;;;;;;5008796;28;20446;-67
2021/12/22 05:47:35;;;;;;;52.20;27.17;;;-4.20;99.90;;;;;;5001690;28;20077;-67
2021/12/22 05:50:03;;;;;;;50.50;24.97;;;;;;;;;;5014380;28;20028;-67
2021/12/22 05:52:29;;;;;;;56.97;27.53;;;-4.10;99.90;;;;;;5013002;28;20022;-67
2021/12/22 05:54:55;;;;;;;59.40;29.17;;;;;;;;;;5013052;28;20038;-67
2021/12/22 05:57:21;;;;;;;42.73;23.83;;;-4.20;99.90;;;;;;5012555;28;20046;-67
2021/12/22 05:59:47;;;;;;;57.43;29.10;;;;;;;;;;5012559;28;20065;-67
2021/12/22 06:02:13;;;;;;;49.53;25.80;;;;;;;;;;5012492;28;20065;-67
2021/12/22 06:04:39;;;;;;;58.57;27.63;;;;;;;;;;5011949;28;20038;-67
2021/12/22 06:07:04;;;;;;;64.43;30.30;;;-4.10;99.90;;;;;;5012673;28;20061;-67
2021/12/22 06:09:30;;;;;;;66.33;30.10;;;;;;;;;;5011354;28;20030;-67
2021/12/22 06:11:56;;;;;;;66.93;31.57;;;-4.00;99.90;;;;;;5020865;28;20409;-67
2021/12/22 06:14:21;;;;;;;57.43;27.07;;;-4.00;99.90;;;;;;5031907;28;20507;-67
2021/12/22 06:16:47;;;;;;;53.07;25.70;;;-3.90;99.90;;;;;;5016625;28;20022;-68
2021/12/22 06:19:14;;;;;;;54.70;25.87;;;;;;;;;;5012450;28;20392;-68
2021/12/22 06:21:41;;;;;;;65.77;29.47;;;;;;;;;;5012781;28;20054;-68
2021/12/22 06:24:08;;;;;;;63.10;29.80;;;-4.20;99.90;;;;;;5012712;28;20037;-68
2021/12/22 06:26:34;;;;;;;63.60;27.57;;;;;;;;;;5016258;28;20108;-68
2021/12/22 06:29:00;;;;;;;59.40;25.67;;;-4.20;99.90;;;;;;5030608;28;20501;-68
2021/12/22 06:31:25;;;;;;;56.77;25.93;;;-4.00;99.90;;;;;;5032173;28;20033;-68
2021/12/22 06:33:51;;;;;;;54.60;27.07;;;-4.30;99.90;;;;;;5032238;28;20064;-68
2021/12/22 06:36:17;;;;;;;56.07;27.30;;;-4.10;99.90;;;;;;5030654;28;20044;-68
2021/12/22 06:38:43;;;;;;;53.40;26.97;;;;;;;;;;5032295;28;20032;-68
2021/12/22 06:41:09;;;;;;;49.20;23.27;;;-4.10;99.90;;;;;;5031710;28;20391;-67
2021/12/22 06:43:35;;;;;;;60.23;26.00;;;;;;;;;;5019822;28;20030;-68
2021/12/22 06:46:01;;;;;;;50.67;25.53;;;-4.10;99.90;;;;;;5015659;28;20105;-68
2021/12/22 06:48:26;;;;;;;51.80;25.73;;;-4.20;99.90;;;;;;5011730;28;20034;-68
2021/12/22 06:50:52;;;;;;;46.50;23.93;;;;;;;;;;5011794;28;20026;-68
2021/12/22 06:53:17;;;;;;;54.80;27.20;;;-4.20;99.90;;;;;;5010425;28;20747;-68
2021/12/22 06:55:43;;;;;;;43.07;24.13;;;-4.00;99.90;;;;;;5011663;28;20068;-68
2021/12/22 06:58:08;;;;;;;54.37;26.80;;;-4.20;99.90;;;;;;5011899;28;20064;-68
2021/12/22 07:00:36;;;;;;;50.40;24.83;;;-4.00;99.90;;;;;;5011751;28;20026;-68
2021/12/22 07:03:04;;;;;;;58.13;25.60;;;-4.30;99.90;;;;;;5010324;28;20030;-67
2021/12/22 07:05:30;;;;;;;52.07;25.10;;;-4.10;99.90;;;;;;5010410;28;20097;-70
2021/12/22 07:07:56;;;;;;;48.17;22.40;;;;;;;;;;5011548;28;20133;-68
2021/12/22 07:10:21;;;;;;;72.77;32.13;;;-4.40;99.90;;;;;;5011092;28;20037;-68
2021/12/22 07:12:47;;;;;;;54.77;26.43;;;-4.30;99.90;;;;;;5011880;28;20080;-68
2021/12/22 07:15:14;;;;;;;50.57;24.20;;;-4.20;99.90;;;;;;5011447;28;20028;-68
2021/12/22 07:17:46;;;;;;;59.40;27.47;;;-4.20;99.90;;;;;;5011647;28;20052;-68
2021/12/22 07:20:12;;;;;;;46.07;22.97;;;-4.30;99.90;;;;;;5011526;28;20039;-71
2021/12/22 07:22:38;;;;;;;51.90;25.97;;;-4.40;99.90;;;;;;5011665;28;20118;-70
2021/12/22 07:25:06;;;;;;;44.10;23.87;;;-4.30;99.90;;;;;;5011149;28;20101;-69
2021/12/22 07:27:31;;;;;;;44.90;22.03;;;-4.50;99.90;;;;;;5011200;28;20033;-70
2021/12/22 07:29:57;;;;;;;49.30;24.10;;;-4.30;99.90;;;;;;5011378;28;20041;-70
2021/12/22 07:32:23;;;;;;;51.77;24.47;;;;;;;;;;5011098;28;20029;-69
2021/12/22 07:35:05;;;;;;;72.23;31.00;;;-4.20;99.90;;;;;;5012503;28;20442;-70
2021/12/22 07:37:39;;;;;;;55.00;26.70;;;-4.20;99.90;;;;;;5011005;28;20048;-70
2021/12/22 07:40:09;;;;;;;50.17;24.73;;;-4.40;99.90;;;;;;5006970;28;20038;-69
2021/12/22 07:42:35;;;;;;;51.90;23.50;;;-4.20;99.90;;;;;;5024847;28;20398;-70
2021/12/22 07:45:01;;;;;;;62.10;26.10;;;;;;;;;;5030883;28;20029;-70
2021/12/22 07:47:26;;;;;;;51.67;25.47;;;-4.20;99.90;;;;;;5030660;28;20037;-69
2021/12/22 07:49:52;;;;;;;51.43;25.00;;;;;;;;;;5030967;28;20060;-70
2021/12/22 07:52:18;;;;;;;56.33;22.67;;;-4.20;99.90;;;;;;5023074;28;20103;-70
2021/12/22 07:54:44;;;;;;;53.93;23.47;;;;;;;;;;5010488;28;20079;-70
2021/12/22 07:57:10;;;;;;;57.57;24.97;;;;;;;;;;5005957;28;20395;-69
2021/12/22 07:59:36;;;;;;;49.50;22.17;;;;;;;;;;5014236;28;20021;-70
2021/12/22 08:02:02;;;;;;;58.57;26.73;;;;;;;;;;5010055;28;20386;-69
2021/12/22 08:04:28;;;;;;;51.10;23.70;;;;;;;;;;5004035;28;20057;-69
2021/12/22 08:06:54;;;;;;;48.70;24.13;;;-4.40;99.90;;;;;;5008328;28;20037;-69
2021/12/22 08:09:26;;;;;;;44.40;21.37;;;;;;;;;;5009352;28;20037;-69
2021/12/22 08:11:56;;;;;;;51.10;25.93;;;-4.20;99.90;;;;;;5009790;28;20036;-69
2021/12/22 08:14:23;;;;;;;46.47;24.40;;;-4.20;99.90;;;;;;5009973;28;20073;-69
2021/12/22 08:16:51;;;;;;;59.17;26.40;;;-4.10;99.90;;;;;;5010385;28;20133;-69
2021/12/22 08:19:16;;;;;;;49.87;24.70;;;-4.00;99.90;;;;;;5013316;28;20022;-69
2021/12/22 08:21:44;;;;;;;50.83;25.77;;;-4.00;99.90;;;;;;5009506;28;20034;-69
2021/12/22 08:24:10;;;;;;;55.37;25.23;;;;;;;;;;5018001;28;20374;-69
2021/12/22 08:26:35;;;;;;;74.17;31.33;;;-4.00;99.90;;;;;;5018419;28;20026;-69
2021/12/22 08:29:01;;;;;;;54.07;26.73;;;-3.90;99.90;;;;;;5017062;28;20045;-69
2021/12/22 08:31:26;;;;;;;57.30;28.00;;;-3.80;99.90;;;;;;5009600;28;20030;-69
2021/12/22 08:33:54;;;;;;;49.53;26.30;;;;;;;;;;5008368;28;20044;-69
2021/12/22 08:39:07;;;;;;;54.10;25.03;;;-3.70;99.90;;;;;;5007286;28;20029;-69
2021/12/22 08:41:36;;;;;;;45.30;23.73;;;-3.60;99.90;;;;;;5009758;28;20033;-69
2021/12/22 08:44:08;;;;;;;71.80;32.17;;;-3.70;99.90;;;;;;5008787;28;20494;-69
2021/12/22 08:46:35;;;;;;;68.87;31.97;;;-3.50;99.90;;;;;;5009814;28;20399;-69
2021/12/22 08:49:03;;;;;;;49.07;28.63;;;-3.30;99.90;;;;;;5010625;28;20076;-67
2021/12/22 08:51:29;;;;;;;47.50;24.10;;;;;;;;;;5029448;28;20033;-68
2021/12/22 08:53:55;;;;;;;54.70;25.10;;;-3.60;99.90;;;;;;5007147;28;20105;-68
2021/12/22 08:56:21;;;;;;;41.17;24.97;;;-3.40;99.90;;;;;;5007372;28;20441;-69
2021/12/22 08:58:47;;;;;;;52.87;22.07;;;-3.40;99.90;;;;;;5009879;28;20423;-69
2021/12/22 09:01:13;;;;;;;51.03;26.23;;;;;;;;;;5009652;28;20030;-68
2021/12/22 09:03:38;;;;;;;54.90;25.17;;;-3.10;99.90;;;;;;5010210;28;20045;-69
2021/12/22 09:06:04;;;;;;;44.13;24.07;;;;;;;;;;5009379;28;20033;-68
2021/12/22 09:08:30;;;;;;;48.07;23.60;;;-3.30;99.90;;;;;;5025938;22;20085;-68
2021/12/22 09:10:56;;;;;;;46.33;22.53;;;;;;;;;;4999496;28;20042;-67
2021/12/22 09:13:22;;;;;;;40.27;21.63;;;-2.90;99.90;;;;;;4988922;28;20022;-67
2021/12/22 09:15:48;;;;;;;43.23;23.33;;;-3.00;99.90;;;;;;5023933;28;20144;-67
2021/12/22 09:18:14;;;;;;;35.33;19.90;;;-3.10;99.90;;;;;;5018479;28;20041;-67
2021/12/22 09:20:40;;;;;;;47.50;25.30;;;;;;;;;;5007368;28;20164;-67
2021/12/22 09:23:06;;;;;;;53.20;26.13;;;-2.80;99.90;;;;;;5022719;28;20030;-67
2021/12/22 09:25:33;;;;;;;42.90;22.50;;;-2.80;99.90;;;;;;5012789;28;20367;-67
2021/12/22 09:27:59;;;;;;;44.80;25.17;;;;;;;;;;5031832;28;20385;-67
2021/12/22 09:30:25;;;;;;;43.93;24.37;;;-2.60;99.90;;;;;;5032074;28;20025;-67
2021/12/22 09:32:51;;;;;;;42.93;22.70;;;;;;;;;;5031975;28;20079;-67
2021/12/22 09:35:17;;;;;;;35.93;19.63;;;;;;;;;;5019020;28;20073;-67
2021/12/22 09:37:43;;;;;;;38.60;20.30;;;;;;;;;;5032106;28;20056;-67
2021/12/22 09:40:09;;;;;;;39.03;23.30;;;-2.40;99.90;;;;;;5031946;28;20481;-67
2021/12/22 09:42:35;;;;;;;36.27;22.07;;;;;;;;;;5026133;28;20417;-67
2021/12/22 09:45:02;;;;;;;43.40;22.63;;;-2.20;99.90;;;;;;5018576;28;20022;-67
2021/12/22 09:47:32;;;;;;;39.60;22.27;;;-2.10;99.90;;;;;;4992599;28;20062;-67
2021/12/22 09:50:12;;;;;;;43.80;22.43;;;;;;;;;;5009375;28;20028;-69
2021/12/22 09:52:38;;;;;;;35.97;18.60;;;-2.30;99.90;;;;;;5031896;28;20032;-68
2021/12/22 09:55:07;;;;;;;37.00;20.53;;;-2.30;99.90;;;;;;5031579;28;20025;-68
2021/12/22 09:57:34;;;;;;;30.87;20.93;;;-2.20;99.90;;;;;;5011358;28;20062;-68
2021/12/22 10:00:00;;;;;;;36.87;21.87;;;-2.20;99.90;;;;;;5004881;28;20026;-68
2021/12/22 10:02:29;;;;;;;46.53;22.90;;;-2.10;99.90;;;;;;5005371;28;20045;-68
2021/12/22 10:05:00;;;;;;;35.23;20.43;;;-1.90;99.90;;;;;;5004094;28;20505;-68
2021/12/22 10:07:29;;;;;;;33.40;19.40;;;-1.80;99.90;;;;;;5046496;28;20049;-67
2021/12/22 10:10:03;;;;;;;42.83;22.23;;;-1.90;99.90;;;;;;5005175;28;20029;-68
2021/12/22 10:12:29;;;;;;;34.25;21.13;;;-1.70;99.90;;;;;;5011599;28;20093;-68
2021/12/22 10:15:06;;;;;;;36.80;19.53;;;-1.60;99.90;;;;;;5026198;28;20037;-68
2021/12/22 10:17:34;;;;;;;36.07;19.63;;;-1.70;99.90;;;;;;5007052;28;20140;-68
2021/12/22 10:20:04;;;;;;;32.10;18.50;;;-1.60;99.90;;;;;;5001490;28;20019;-68
2021/12/22 10:22:36;;;;;;;29.10;18.47;;;-1.70;99.90;;;;;;5021466;28;20049;-68
2021/12/22 10:25:08;;;;;;;32.97;19.27;;;-1.50;99.90;;;;;;5026870;28;20041;-68
2021/12/22 10:27:34;;;;;;;30.33;17.80;;;-1.20;99.90;;;;;;5031043;28;20042;-69
2021/12/22 10:30:00;;;;;;;26.33;16.37;;;;;;;;;;5004614;28;20376;-68
2021/12/22 10:32:25;;;;;;;33.23;20.17;;;-1.20;99.90;;;;;;5030944;28;20181;-67
2021/12/22 10:34:58;;;;;;;34.13;20.10;;;-1.10;99.90;;;;;;5022065;28;20034;-68
2021/12/22 10:37:39;;;;;;;32.33;18.00;;;-1.20;99.90;;;;;;5030592;28;20026;-68
2021/12/22 10:40:24;;;;;;;43.97;24.47;;;-1.00;99.90;;;;;;5030900;28;20029;-67
2021/12/22 10:42:51;;;;;;;33.87;21.87;;;-1.10;99.90;;;;;;5030873;28;20056;-68
2021/12/22 10:45:18;;;;;;;38.57;22.00;;;-1.10;99.90;;;;;;5020157;28;20033;-68
2021/12/22 10:50:33;;;;;;;29.23;20.17;;;-1.00;99.90;;;;;;5010701;28;20426;-68
2021/12/22 10:52:59;;;;;;;29.70;19.47;;;-1.00;99.90;;;;;;5007923;28;20026;-68
2021/12/22 10:55:25;;;;;;;30.37;19.57;;;;;;;;;;5005609;28;20101;-69
2021/12/22 10:57:51;;;;;;;24.87;15.90;;;-0.90;99.90;;;;;;5002949;28;20113;-67
2021/12/22 11:00:25;;;;;;;28.93;20.03;;;-0.80;99.90;;;;;;5015638;28;20149;-68
2021/12/22 11:03:05;;;;;;;33.47;21.33;;;-0.60;99.90;;;;;;5015248;28;20017;-68
2021/12/22 11:05:45;;;;;;;38.27;22.00;;;-0.60;99.90;;;;;;5005329;28;20545;-68
2021/12/22 11:08:22;;;;;;;32.43;20.80;;;-0.90;99.90;;;;;;5010267;28;20049;-68
2021/12/22 11:10:49;;;;;;;30.80;20.33;;;-0.70;99.90;;;;;;5010464;28;20348;-68
2021/12/22 11:13:24;;;;;;;32.97;19.10;;;-0.60;99.90;;;;;;5017281;28;20021;-68
2021/12/22 11:15:51;;;;;;;31.50;17.43;;;-0.10;99.90;;;;;;5016532;28;20031;-68
2021/12/22 11:18:33;;;;;;;30.73;19.90;;;-0.60;99.90;;;;;;5007046;28;20106;-68
2021/12/22 11:21:08;;;;;;;28.17;17.50;;;-0.40;99.90;;;;;;5000831;28;20030;-68
2021/12/22 11:23:35;;;;;;;32.77;20.33;;;-0.30;99.90;;;;;;5000840;28;20021;-68
2021/12/22 11:26:01;;;;;;;26.03;19.40;;;-0.50;99.90;;;;;;5010139;28;20125;-68
2021/12/22 11:28:26;;;;;;;34.73;20.07;;;-0.40;99.90;;;;;;5005464;28;20204;-68
2021/12/22 11:30:52;;;;;;;32.93;19.30;;;-0.30;99.90;;;;;;5016797;28;20018;-68
2021/12/22 11:33:17;;;;;;;29.93;20.47;;;-0.40;99.90;;;;;;4999853;28;20491;-68
2021/12/22 11:35:44;;;;;;;30.20;19.57;;;;;;;;;;5001489;28;20108;-69
2021/12/22 11:38:10;;;;;;;33.03;19.30;;;-0.40;99.90;;;;;;4990001;28;20085;-69
2021/12/22 11:40:36;;;;;;;33.30;19.87;;;-0.40;99.90;;;;;;4990374;28;20076;-70
2021/12/22 11:43:02;;;;;;;32.13;19.47;;;-0.50;99.90;;;;;;4990515;28;20534;-69
2021/12/22 11:45:28;;;;;;;31.57;20.23;;;;;;;;;;4997755;28;20164;-68
2021/12/22 11:47:57;;;;;;;29.93;20.73;;;-0.20;99.90;;;;;;5009646;28;20057;-69
2021/12/22 11:50:34;;;;;;;27.90;18.83;;;-0.40;99.90;;;;;;5009555;28;20026;-69
2021/12/22 11:53:06;;;;;;;27.63;17.83;;;0.00;99.90;;;;;;5006628;28;20172;-69
2021/12/22 11:55:48;;;;;;;27.00;18.77;;;-0.30;99.90;;;;;;4997951;28;20054;-69
2021/12/22 11:58:13;;;;;;;24.50;17.87;;;-0.30;99.90;;;;;;5004125;28;20022;-69
2021/12/22 12:00:41;;;;;;;30.33;19.70;;;-0.10;99.90;;;;;;5005944;28;20061;-68
2021/12/22 12:03:28;;;;;;;31.93;20.73;;;-0.30;99.90;;;;;;5000243;28;20380;-68
2021/12/22 12:06:08;;;;;;;25.43;18.60;;;-0.10;99.90;;;;;;5024730;28;20029;-68
2021/12/22 12:08:57;;;;;;;22.60;16.43;;;-0.20;99.90;;;;;;5008001;28;20127;-69
2021/12/22 12:11:38;;;;;;;28.87;19.13;;;-0.20;99.90;;;;;;5009195;28;20072;-69
2021/12/22 12:14:13;;;;;;;28.30;18.83;;;-0.20;99.90;;;;;;5009666;28;20026;-70
2021/12/22 12:22:21;;;;;;;30.80;21.53;;;;;;;;;;4991950;28;19975;-69
2021/12/22 12:25:06;;;;;;;44.57;25.47;;;-0.10;99.90;;;;;;4989895;28;20781;-69
2021/12/22 12:27:53;;;;;;;29.43;21.10;;;-0.20;99.90;;;;;;4989436;28;20034;-69
2021/12/22 12:30:38;;;;;;;29.23;20.07;;;-0.20;99.90;;;;;;4989102;28;20153;-69
2021/12/22 12:33:05;;;;;;;32.07;19.77;;;-0.10;99.90;;;;;;4989694;28;20026;-69
2021/12/22 12:35:33;;;;;;;31.63;20.90;;;-0.10;99.90;;;;;;4991307;28;20369;-69
2021/12/22 12:38:03;;;;;;;27.63;18.77;;;-0.20;99.90;;;;;;5007609;28;20026;-69
2021/12/22 12:40:57;;;;;;;33.27;20.57;;;0.00;99.90;;;;;;5008912;28;20025;-69
2021/12/22 12:46:21;;;;;;;29.73;21.13;;;-0.20;99.90;;;;;;4990090;28;20038;-69
2021/12/22 12:48:47;;;;;;;30.83;19.63;;;-0.30;99.90;;;;;;5021229;28;20042;-69
2021/12/22 12:51:13;;;;;;;29.13;20.67;;;-0.30;99.90;;;;;;4996864;28;20368;-69
2021/12/22 12:53:48;;;;;;;28.57;20.07;;;-0.40;99.90;;;;;;5021076;28;20550;-69
2021/12/22 12:56:16;;;;;;;28.93;20.03;;;-0.20;99.90;;;;;;4999605;28;20034;-69
2021/12/22 12:59:01;;;;;;;26.80;19.00;;;-0.30;99.90;;;;;;4998781;28;20034;-69
2021/12/22 13:01:45;;;;;;;28.77;18.73;;;-0.30;99.90;;;;;;5019333;28;20030;-69
2021/12/22 13:04:28;;;;;;;23.63;17.30;;;-0.40;99.90;;;;;;5003737;28;20014;-69
2021/12/22 13:07:06;;;;;;;30.65;19.00;;;-0.10;99.90;;;;;;4993528;28;20118;-69
2021/12/22 13:09:36;;;;;;;22.07;16.10;;;-0.40;99.90;;;;;;5000651;28;20050;-69
2021/12/22 13:17:40;;;;;;;27.13;17.67;;;-0.20;99.90;;;;;;5003387;28;20528;-69
2021/12/22 13:20:08;;;;;;;27.43;17.87;;;-0.30;99.90;;;;;;5002123;28;20030;-70
2021/12/22 13:22:37;;;;;;;25.93;18.20;;;-0.20;99.90;;;;;;4998827;28;20030;-69
2021/12/22 13:25:12;;;;;;;27.90;18.13;;;1.20;99.90;;;;;;4999481;28;20068;-69
2021/12/22 13:27:44;;;;;;;27.73;18.03;;;-0.20;99.90;;;;;;5003004;28;20080;-69
2021/12/22 13:30:11;;;;;;;26.43;17.67;;;-0.30;99.90;;;;;;5009780;28;20029;-70
2021/12/22 13:32:54;;;;;;;22.10;16.67;;;-0.30;99.90;;;;;;5012442;28;20022;-69
2021/12/22 13:35:43;;;;;;;27.10;17.80;;;-0.10;99.90;;;;;;5011677;28;20025;-69